createdAt,value
2023-02-08T00:00:07.259Z,4.97
2023-02-08T00:02:34.136Z,3.75
2023-02-08T00:05:00.663Z,2.78
2023-02-08T00:07:27.304Z,3.88
2023-02-08T00:09:53.821Z,6.68
2023-02-08T00:12:20.402Z,3.25
2023-02-08T00:14:46.944Z,2.92
2023-02-08T00:17:13.523Z,8.75
2023-02-08T00:19:40.129Z,4.13
2023-02-08T00:22:06.698Z,4.60
2023-02-08T00:24:33.401Z,6.47
2023-02-08T00:27:00.017Z,6.43
2023-02-08T00:29:26.683Z,3.85
2023-02-08T00:31:53.822Z,4.43
2023-02-08T00:34:20.441Z,3.85
2023-02-08T00:36:47.148Z,3.97
2023-02-08T00:39:13.752Z,5.32
2023-02-08T00:41:40.884Z,8.23
2023-02-08T00:44:07.422Z,2.95
2023-02-08T00:46:35.225Z,3.15
2023-02-08T00:49:01.707Z,2.85
2023-02-08T00:51:28.283Z,5.53
2023-02-08T00:53:54.910Z,3.35
2023-02-08T00:56:21.647Z,7.38
2023-02-08T00:58:48.474Z,4.15
2023-02-08T01:01:15.582Z,6.28
2023-02-08T01:03:43.177Z,4.30
2023-02-08T01:06:14.347Z,5.72
2023-02-08T01:08:41.054Z,2.67
2023-02-08T01:11:11.591Z,2.95
2023-02-08T01:13:38.680Z,4.82
2023-02-08T01:16:17.814Z,3.35
2023-02-08T01:18:47.828Z,4.05
2023-02-08T01:21:17.662Z,1.30
2023-02-08T01:23:45.198Z,2.58
2023-02-08T01:26:12.913Z,1.90
2023-02-08T01:28:40.071Z,3.35
2023-02-08T01:31:19.196Z,2.10
2023-02-08T01:33:46.300Z,7.63
2023-02-08T01:36:13.576Z,3.42
2023-02-08T01:38:42.869Z,4.25
2023-02-08T01:41:18.412Z,4.28
2023-02-08T01:44:13.505Z,2.78
2023-02-08T01:46:42.873Z,4.72
2023-02-08T01:49:24.764Z,3.45
2023-02-08T01:51:54.441Z,4.75
2023-02-08T01:54:26.017Z,4.38
2023-02-08T01:56:53.034Z,2.85
2023-02-08T01:59:52.465Z,3.70
2023-02-08T02:02:22.151Z,6.25
2023-02-08T02:04:51.148Z,3.42
2023-02-08T02:07:20.668Z,2.30
2023-02-08T02:09:59.805Z,4.13
2023-02-08T02:12:27.162Z,4.28
2023-02-08T02:14:54.048Z,3.97
2023-02-08T02:17:20.992Z,6.40
2023-02-08T02:20:18.241Z,4.85
2023-02-08T02:22:44.824Z,5.43
2023-02-08T02:25:30.650Z,3.95
2023-02-08T02:28:28.226Z,2.78
2023-02-08T02:31:07.792Z,3.17
2023-02-08T02:33:53.711Z,2.58
2023-02-08T02:36:44.307Z,6.20
2023-02-08T02:39:35.355Z,3.55
2023-02-08T02:42:32.675Z,2.70
2023-02-08T02:45:33.109Z,3.58
2023-02-08T02:48:17.087Z,5.57
2023-02-08T02:50:48.218Z,3.05
2023-02-08T02:53:20.092Z,5.05
2023-02-08T02:56:04.963Z,3.17
2023-02-08T02:58:33.168Z,5.25
2023-02-08T03:01:00.324Z,4.95
2023-02-08T03:03:30.466Z,2.15
2023-02-08T03:06:01.100Z,2.65
2023-02-08T03:08:30.406Z,5.85
2023-02-08T03:11:14.668Z,4.32
2023-02-08T03:13:56.869Z,5.40
2023-02-08T03:16:38.245Z,7.00
2023-02-08T03:19:11.318Z,3.28
2023-02-08T03:21:37.802Z,2.55
2023-02-08T03:24:19.620Z,4.20
2023-02-08T03:27:05.059Z,2.78
2023-02-08T03:29:43.859Z,2.63
2023-02-08T03:32:17.453Z,3.67
2023-02-08T03:34:57.856Z,2.60
2023-02-08T03:37:36.532Z,3.47
2023-02-08T03:40:09.599Z,2.90
2023-02-08T03:42:38.940Z,2.28
2023-02-08T03:45:26.470Z,3.00
2023-02-08T03:47:56.081Z,1.90
2023-02-08T03:50:24.120Z,2.55
2023-02-08T03:52:52.440Z,3.17
2023-02-08T03:55:25.047Z,2.90
2023-02-08T03:58:09.912Z,5.10
2023-02-08T04:00:40.510Z,5.63
2023-02-08T04:03:15.550Z,2.08
2023-02-08T04:05:42.550Z,21.08
2023-02-08T04:08:09.323Z,9.57
2023-02-08T04:10:36.052Z,4.25
2023-02-08T04:13:02.716Z,3.65
2023-02-08T04:15:29.377Z,3.50
2023-02-08T04:17:55.876Z,4.45
2023-02-08T04:20:22.487Z,2.75
2023-02-08T04:22:49.082Z,3.40
2023-02-08T04:25:16.069Z,4.40
2023-02-08T04:27:43.081Z,5.72
2023-02-08T04:30:10.326Z,3.35
2023-02-08T04:32:36.891Z,2.35
2023-02-08T04:35:04.090Z,5.40
2023-02-08T04:37:31.512Z,6.80
2023-02-08T04:39:58.107Z,6.18
2023-02-08T04:42:24.728Z,5.35
2023-02-08T04:44:52.021Z,1.40
2023-02-08T04:47:18.625Z,4.03
2023-02-08T04:49:45.252Z,1.08
2023-02-08T04:52:11.792Z,3.65
2023-02-08T04:54:40.581Z,1.88
2023-02-08T04:57:07.471Z,3.55
2023-02-08T04:59:34.027Z,1.20
2023-02-08T05:02:00.610Z,4.45
2023-02-08T05:04:27.442Z,5.72
2023-02-08T05:06:53.984Z,1.65
2023-02-08T05:09:20.557Z,3.30
2023-02-08T05:11:47.165Z,1.77
2023-02-08T05:14:13.792Z,4.57
2023-02-08T05:16:40.416Z,6.88
2023-02-08T05:19:07.023Z,3.88
2023-02-08T05:21:33.548Z,3.70
2023-02-08T05:24:00.130Z,1.10
2023-02-08T05:26:26.687Z,3.28
2023-02-08T05:28:53.225Z,4.20
2023-02-08T05:31:23.183Z,2.55
2023-02-08T05:33:50.842Z,1.45
2023-02-08T05:36:17.711Z,3.70
2023-02-08T05:38:44.390Z,4.47
2023-02-08T05:41:11.008Z,4.88
2023-02-08T05:43:37.691Z,3.22
2023-02-08T05:46:04.294Z,3.33
2023-02-08T05:48:32.167Z,2.75
2023-02-08T05:50:59.477Z,1.65
2023-02-08T05:53:27.347Z,4.13
2023-02-08T05:55:53.978Z,2.33
2023-02-08T05:58:20.567Z,2.75
2023-02-08T06:00:47.216Z,3.20
2023-02-08T06:03:13.911Z,5.95
2023-02-08T06:05:41.040Z,2.47
2023-02-08T06:08:08.533Z,1.95
2023-02-08T06:10:35.341Z,5.55
2023-02-08T06:13:02.526Z,3.13
2023-02-08T06:15:29.104Z,7.53
2023-02-08T06:17:55.761Z,7.07
2023-02-08T06:20:23.895Z,2.22
2023-02-08T06:22:50.546Z,6.30
2023-02-08T06:25:17.247Z,2.45
2023-02-08T06:27:43.888Z,4.15
2023-02-08T06:30:11.138Z,1.85
2023-02-08T06:32:37.786Z,5.70
2023-02-08T06:35:04.464Z,3.55
2023-02-08T06:37:30.995Z,7.38
2023-02-08T06:39:57.712Z,3.53
2023-02-08T06:42:24.388Z,1.75
2023-02-08T06:44:54.948Z,3.42
2023-02-08T06:47:22.830Z,9.13
2023-02-08T06:49:49.455Z,3.40
2023-02-08T06:52:16.329Z,2.17
2023-02-08T06:54:43.230Z,2.20
2023-02-08T06:57:12.777Z,2.58
2023-02-08T06:59:40.489Z,2.65
2023-02-08T07:02:12.881Z,4.13
2023-02-08T07:04:39.516Z,1.10
2023-02-08T07:07:06.181Z,6.97
2023-02-08T07:09:36.824Z,2.80
2023-02-08T07:12:05.203Z,3.45
2023-02-08T07:16:59.315Z,2.70
2023-02-08T07:19:26.462Z,3.70
2023-02-08T07:21:53.579Z,4.95
2023-02-08T07:24:20.253Z,3.10
2023-02-08T07:26:47.028Z,3.20
2023-02-08T07:29:13.527Z,3.90
2023-02-08T07:31:40.272Z,3.72
2023-02-08T07:34:06.855Z,6.97
2023-02-08T07:36:35.644Z,4.47
2023-02-08T07:39:02.810Z,12.85
2023-02-08T07:41:29.569Z,9.75
2023-02-08T07:43:56.135Z,4.65
2023-02-08T07:46:22.907Z,3.80
2023-02-08T07:48:50.017Z,6.18
2023-02-08T07:51:16.640Z,5.72
2023-02-08T07:53:43.407Z,6.28
2023-02-08T07:56:10.505Z,2.92
2023-02-08T07:58:37.517Z,5.15
2023-02-08T08:01:19.570Z,6.15
2023-02-08T08:03:49.280Z,2.63
2023-02-08T08:06:15.872Z,3.85
2023-02-08T08:08:44.797Z,5.20
2023-02-08T08:11:11.295Z,4.88
2023-02-08T08:13:37.920Z,8.73
2023-02-08T08:16:04.807Z,6.63
2023-02-08T08:18:31.516Z,3.78
2023-02-08T08:20:58.034Z,4.70
2023-02-08T08:23:24.664Z,8.77
2023-02-08T08:25:51.192Z,9.82
2023-02-08T08:28:17.935Z,5.88
2023-02-08T08:30:45.486Z,6.82
2023-02-08T08:33:13.982Z,10.60
2023-02-08T08:35:42.568Z,8.35
2023-02-08T08:38:09.685Z,4.47
2023-02-08T08:40:36.265Z,6.57
2023-02-08T08:43:02.941Z,9.05
2023-02-08T08:45:29.504Z,7.18
2023-02-08T08:47:56.125Z,9.85
2023-02-08T08:50:22.805Z,4.97
2023-02-08T08:52:49.374Z,9.07
2023-02-08T08:55:16.036Z,6.82
2023-02-08T08:57:42.739Z,15.15
2023-02-08T09:00:10.045Z,6.68
2023-02-08T09:02:36.765Z,7.28
2023-02-08T09:05:05.464Z,7.60
2023-02-08T09:07:33.031Z,13.07
2023-02-08T09:09:59.539Z,9.63
2023-02-08T09:12:26.196Z,13.57
2023-02-08T09:14:52.695Z,9.10
2023-02-08T09:17:19.362Z,10.98
2023-02-08T09:19:47.360Z,10.05
2023-02-08T09:22:14.286Z,15.02
2023-02-08T09:24:40.939Z,9.98
2023-02-08T09:27:08.023Z,11.48
2023-02-08T09:29:35.777Z,13.52
2023-02-08T09:32:02.997Z,10.45
2023-02-08T09:34:29.553Z,9.88
2023-02-08T09:36:56.816Z,14.27
2023-02-08T09:39:24.969Z,11.25
2023-02-08T09:42:10.432Z,11.40
2023-02-08T09:44:51.605Z,12.88
2023-02-08T09:47:24.016Z,13.05
2023-02-08T09:49:59.193Z,14.80
2023-02-08T09:52:35.264Z,12.32
2023-02-08T09:55:10.607Z,13.68
2023-02-08T09:57:39.253Z,14.63
2023-02-08T10:00:14.958Z,11.70
2023-02-08T10:02:44.271Z,12.70
2023-02-08T10:05:15.023Z,11.20
2023-02-08T10:07:43.053Z,10.77
2023-02-08T10:10:37.172Z,13.13
2023-02-08T10:13:42.779Z,11.57
2023-02-08T10:16:44.806Z,15.80
2023-02-08T10:19:29.984Z,12.15
2023-02-08T10:21:59.597Z,12.38
2023-02-08T10:24:38.298Z,15.57
2023-02-08T10:27:17.551Z,15.80
2023-02-08T10:30:49.034Z,11.55
2023-02-08T10:33:32.530Z,11.27
2023-02-08T10:35:59.080Z,9.40
2023-02-08T10:38:37.172Z,11.02
2023-02-08T10:41:09.148Z,9.15
2023-02-08T10:43:35.854Z,11.13
2023-02-08T10:46:21.371Z,10.15
2023-02-08T10:51:21.275Z,9.00
2023-02-08T10:53:48.661Z,8.90
2023-02-08T10:59:14.855Z,8.60
2023-02-08T11:01:42.274Z,11.48
2023-02-08T11:04:12.329Z,9.75
2023-02-08T11:06:41.552Z,10.80
2023-02-08T11:09:21.144Z,9.70
2023-02-08T11:11:52.568Z,9.43
2023-02-08T11:14:23.826Z,11.35
2023-02-08T11:16:53.886Z,10.25
2023-02-08T11:19:35.555Z,8.38
2023-02-08T11:22:05.811Z,9.32
2023-02-08T11:24:40.160Z,9.73
2023-02-08T11:27:18.817Z,8.73
2023-02-08T11:29:45.431Z,9.30
2023-02-08T11:32:21.269Z,10.10
2023-02-08T11:34:48.850Z,10.75
2023-02-08T11:37:28.399Z,9.20
2023-02-08T11:39:57.848Z,9.65
2023-02-08T11:42:26.286Z,10.15
2023-02-08T11:44:55.170Z,8.85
2023-02-08T11:47:28.212Z,10.25
2023-02-08T11:50:01.796Z,8.93
2023-02-08T11:52:41.916Z,9.73
2023-02-08T11:55:17.477Z,9.02
2023-02-08T11:58:05.822Z,11.68
2023-02-08T12:00:35.681Z,11.10
2023-02-08T12:03:07.999Z,12.05
2023-02-08T12:06:04.694Z,9.35
2023-02-08T12:09:01.780Z,11.07
2023-02-08T12:11:45.700Z,10.10
2023-02-08T12:14:47.062Z,9.80
2023-02-08T12:17:34.204Z,9.23
2023-02-08T12:20:25.896Z,10.35
2023-02-08T12:25:50.753Z,7.65
2023-02-08T12:28:20.404Z,8.63
2023-02-08T12:30:59.247Z,9.25
2023-02-08T12:33:50.973Z,10.95
2023-02-08T12:36:36.622Z,6.95
2023-02-08T12:39:43.905Z,6.82
2023-02-08T12:42:41.275Z,8.75
2023-02-08T12:45:22.129Z,9.23
2023-02-08T12:48:07.006Z,7.30
2023-02-08T12:50:52.361Z,8.10
2023-02-08T12:53:30.908Z,7.68
2023-02-08T12:56:02.179Z,8.25
2023-02-08T12:58:31.144Z,5.93
2023-02-08T13:01:10.149Z,8.55
2023-02-08T13:03:54.993Z,7.00
2023-02-08T13:06:25.410Z,8.35
2023-02-08T13:09:05.983Z,11.50
2023-02-08T13:11:53.517Z,6.55
2023-02-08T13:14:26.763Z,7.05
2023-02-08T13:16:58.216Z,6.00
2023-02-08T13:19:59.683Z,7.32
2023-02-08T13:22:27.522Z,6.80
2023-02-08T13:25:06.348Z,7.78
2023-02-08T13:27:34.035Z,8.40
2023-02-08T13:30:01.491Z,7.03
2023-02-08T13:32:44.362Z,6.03
2023-02-08T13:35:23.917Z,7.38
2023-02-08T13:38:12.648Z,6.13
2023-02-08T13:40:39.390Z,6.20
2023-02-08T13:43:23.355Z,9.07
2023-02-08T13:45:59.399Z,6.53
2023-02-08T13:48:27.208Z,6.07
2023-02-08T13:50:56.719Z,6.43
2023-02-08T13:53:38.694Z,6.30
2023-02-08T13:56:13.164Z,5.72
2023-02-08T13:58:42.582Z,8.13
2023-02-08T14:01:09.050Z,6.85
2023-02-08T14:03:36.063Z,7.15
2023-02-08T14:06:22.529Z,5.68
2023-02-08T14:09:01.014Z,6.53
2023-02-08T14:11:49.206Z,8.88
2023-02-08T14:14:21.299Z,6.40
2023-02-08T14:17:19.404Z,5.57
2023-02-08T14:20:00.063Z,6.38
2023-02-08T14:22:38.895Z,6.80
2023-02-08T14:25:17.872Z,8.05
2023-02-08T14:27:54.742Z,5.47
2023-02-08T14:30:28.956Z,6.18
2023-02-08T14:33:01.558Z,7.60
2023-02-08T14:35:29.474Z,6.75
2023-02-08T14:38:24.140Z,7.93
2023-02-08T14:41:02.237Z,7.07
2023-02-08T14:43:41.174Z,6.18
2023-02-08T14:46:45.134Z,8.32
2023-02-08T14:49:17.199Z,6.35
2023-02-08T14:52:06.969Z,8.07
2023-02-08T14:54:41.796Z,9.20
2023-02-08T14:57:24.192Z,6.47
2023-02-08T14:59:51.899Z,7.50
2023-02-08T15:02:31.267Z,7.25
2023-02-08T15:07:49.325Z,7.53
2023-02-08T15:10:18.742Z,5.43
2023-02-08T15:12:53.377Z,7.05
2023-02-08T15:15:36.651Z,9.70
2023-02-08T15:18:06.056Z,7.28
2023-02-08T15:20:36.324Z,7.82
2023-02-08T15:23:19.893Z,8.02
2023-02-08T15:25:56.813Z,7.22
2023-02-08T15:28:25.988Z,7.97
2023-02-08T15:31:20.639Z,8.25
2023-02-08T15:33:47.731Z,10.13
2023-02-08T15:36:18.860Z,9.02
2023-02-08T15:38:45.739Z,7.65
2023-02-08T15:41:14.897Z,6.72
2023-02-08T15:43:43.025Z,7.35
2023-02-08T15:46:25.611Z,8.10
2023-02-08T15:48:54.621Z,8.10
2023-02-08T15:51:23.249Z,7.50
2023-02-08T15:53:56.579Z,7.95
2023-02-08T15:59:06.476Z,7.38
2023-02-08T16:01:33.396Z,9.25
2023-02-08T16:04:05.978Z,7.88
2023-02-08T16:06:39.653Z,8.38
2023-02-08T16:09:06.828Z,9.35
2023-02-08T16:11:36.155Z,9.07
2023-02-08T16:14:04.913Z,11.63
2023-02-08T16:16:51.565Z,9.13
2023-02-08T16:19:32.448Z,9.02
2023-02-08T16:22:20.946Z,8.15
2023-02-08T16:24:50.641Z,6.68
2023-02-08T16:27:26.395Z,8.00
2023-02-08T16:29:53.850Z,7.82
2023-02-08T16:32:35.930Z,7.55
2023-02-08T16:35:19.808Z,11.70
2023-02-08T16:38:02.649Z,7.75
2023-02-08T16:40:52.538Z,6.32
2023-02-08T16:43:32.634Z,5.03
2023-02-08T16:48:56.640Z,17.02
2023-02-08T16:51:39.408Z,6.32
2023-02-08T16:54:07.719Z,5.60
2023-02-08T16:56:35.563Z,5.85
2023-02-08T16:59:02.165Z,7.47
2023-02-08T17:01:28.883Z,6.85
2023-02-08T17:03:55.583Z,4.10
2023-02-08T17:06:35.069Z,9.00
2023-02-08T17:09:04.191Z,7.68
2023-02-08T17:11:30.960Z,13.45
2023-02-08T17:13:58.601Z,6.63
2023-02-08T17:16:27.758Z,5.97
2023-02-08T17:18:54.537Z,7.95
2023-02-08T17:21:21.341Z,7.78
2023-02-08T17:23:48.410Z,7.25
2023-02-08T17:26:19.983Z,9.10
2023-02-08T17:28:46.614Z,5.55
2023-02-08T17:31:14.498Z,4.45
2023-02-08T17:36:09.653Z,4.07
2023-02-08T17:38:39.649Z,6.00
2023-02-08T17:41:07.642Z,4.40
2023-02-08T17:43:34.329Z,4.38
2023-02-08T17:46:01.014Z,7.57
2023-02-08T17:48:27.695Z,6.45
2023-02-08T17:50:54.227Z,3.95
2023-02-08T17:53:23.622Z,8.90
2023-02-08T17:55:50.346Z,3.88
2023-02-08T17:58:18.004Z,4.28
2023-02-08T18:00:44.777Z,5.32
2023-02-08T18:03:12.046Z,7.53
2023-02-08T18:05:38.901Z,5.28
2023-02-08T18:08:05.531Z,4.72
2023-02-08T18:10:37.647Z,7.03
2023-02-08T18:13:04.312Z,5.68
2023-02-08T18:15:30.976Z,8.20
2023-02-08T18:17:57.527Z,5.78
2023-02-08T18:20:24.403Z,5.68
2023-02-08T18:22:51.064Z,6.30
2023-02-08T18:25:18.962Z,7.93
2023-02-08T18:27:45.571Z,6.85
2023-02-08T18:30:12.872Z,3.78
2023-02-08T18:32:39.972Z,4.60
2023-02-08T18:35:07.969Z,7.43
2023-02-08T18:37:36.564Z,4.47
2023-02-08T18:40:04.816Z,6.03
2023-02-08T18:42:31.856Z,4.57
2023-02-08T18:44:58.688Z,4.47
2023-02-08T18:47:25.363Z,9.35
2023-02-08T18:49:57.442Z,7.22
2023-02-08T18:52:24.286Z,8.60
2023-02-08T18:54:51.372Z,7.60
2023-02-08T18:57:18.473Z,6.85
2023-02-08T18:59:45.335Z,5.15
2023-02-08T19:02:18.735Z,10.23
2023-02-08T19:04:45.385Z,3.40
2023-02-08T19:07:12.109Z,6.28
2023-02-08T19:09:39.791Z,8.40
2023-02-08T19:12:07.833Z,5.75
2023-02-08T19:17:02.226Z,11.57
2023-02-08T19:19:28.841Z,5.07
2023-02-08T19:21:55.568Z,5.22
2023-02-08T19:24:22.184Z,4.25
2023-02-08T19:26:48.849Z,6.30
2023-02-08T19:29:17.696Z,6.88
2023-02-08T19:31:45.151Z,6.45
2023-02-08T19:34:12.779Z,4.65
2023-02-08T19:36:49.532Z,8.48
2023-02-08T19:39:19.431Z,8.95
2023-02-08T19:41:46.616Z,14.02
2023-02-08T19:44:16.454Z,6.45
2023-02-08T19:46:47.717Z,6.32
2023-02-08T19:49:14.784Z,4.32
2023-02-08T19:51:41.400Z,7.63
2023-02-08T19:54:13.108Z,5.53
2023-02-08T19:56:40.449Z,4.63
2023-02-08T19:59:08.968Z,8.13
2023-02-08T20:01:36.252Z,8.18
2023-02-08T20:04:03.519Z,5.93
2023-02-08T20:06:36.669Z,5.20
2023-02-08T20:09:04.708Z,10.65
2023-02-08T20:11:33.979Z,9.63
2023-02-08T20:14:01.115Z,11.27
2023-02-08T20:16:31.603Z,4.60
2023-02-08T20:18:59.276Z,6.40
2023-02-08T20:21:26.701Z,7.95
2023-02-08T20:23:53.506Z,11.45
2023-02-08T20:26:23.522Z,8.40
2023-02-08T20:28:55.597Z,9.73
2023-02-08T20:31:28.251Z,7.18
2023-02-08T20:33:59.646Z,5.72
2023-02-08T20:36:28.869Z,7.75
2023-02-08T20:38:58.003Z,8.45
2023-02-08T20:41:27.394Z,7.15
2023-02-08T20:43:54.615Z,7.00
2023-02-08T20:46:31.033Z,6.28
2023-02-08T20:48:59.926Z,6.20
2023-02-08T20:51:27.574Z,9.63
2023-02-08T20:53:55.892Z,6.03
2023-02-08T20:58:50.923Z,6.97
2023-02-08T21:01:20.284Z,4.35
2023-02-08T21:03:47.080Z,4.95
2023-02-08T21:06:17.271Z,6.72
2023-02-08T21:08:44.451Z,10.38
2023-02-08T21:11:11.792Z,7.13
2023-02-08T21:13:38.831Z,11.23
2023-02-08T21:16:10.084Z,12.00
2023-02-08T21:18:37.352Z,9.32
2023-02-08T21:21:05.502Z,6.95
2023-02-08T21:26:00.134Z,9.25
2023-02-08T21:28:26.894Z,9.70
2023-02-08T21:30:58.129Z,4.85
2023-02-08T21:33:25.342Z,5.85
2023-02-08T21:35:51.928Z,8.15
2023-02-08T21:38:18.856Z,6.10
2023-02-08T21:40:46.010Z,4.50
2023-02-08T21:43:13.745Z,6.70
2023-02-08T21:45:40.417Z,5.07
2023-02-08T21:48:06.965Z,13.45
2023-02-08T21:51:05.829Z,8.10
2023-02-08T21:53:52.491Z,10.10
2023-02-08T21:56:19.624Z,6.47
2023-02-08T21:58:46.233Z,7.10
2023-02-08T22:01:12.798Z,6.20
2023-02-08T22:03:39.381Z,7.90
2023-02-08T22:06:06.314Z,8.45
2023-02-08T22:08:33.089Z,9.63
2023-02-08T22:11:04.545Z,9.93
2023-02-08T22:13:32.635Z,8.07
2023-02-08T22:16:00.317Z,5.80
2023-02-08T22:18:27.347Z,5.72
2023-02-08T22:20:54.513Z,5.10
2023-02-08T22:23:21.705Z,5.90
2023-02-08T22:25:48.309Z,5.68
2023-02-08T22:28:15.092Z,7.75
2023-02-08T22:30:41.814Z,6.10
2023-02-08T22:33:08.543Z,7.75
2023-02-08T22:35:35.243Z,6.85
2023-02-08T22:38:01.825Z,8.02
2023-02-08T22:40:28.464Z,4.85
2023-02-08T22:42:55.231Z,9.27
2023-02-08T22:45:23.640Z,9.68
2023-02-08T22:47:50.201Z,8.18
2023-02-08T22:50:16.793Z,9.95
2023-02-08T22:52:43.394Z,11.25
2023-02-08T22:55:10.028Z,13.10
2023-02-08T22:57:37.127Z,12.63
2023-02-08T23:00:07.114Z,11.18
2023-02-08T23:02:33.814Z,16.75
2023-02-08T23:05:00.431Z,18.45
2023-02-08T23:07:27.075Z,15.27
2023-02-08T23:09:53.673Z,19.08
2023-02-08T23:12:20.362Z,14.05
2023-02-08T23:14:47.034Z,15.25
2023-02-08T23:17:13.671Z,9.32
2023-02-08T23:19:41.258Z,13.52
2023-02-08T23:22:08.275Z,15.77
2023-02-08T23:24:34.928Z,9.93
2023-02-08T23:27:01.544Z,11.90
2023-02-08T23:29:28.248Z,11.80
2023-02-08T23:31:54.912Z,10.15
2023-02-08T23:34:21.746Z,5.97
2023-02-08T23:36:48.499Z,11.15
2023-02-08T23:39:15.105Z,8.32
2023-02-08T23:41:41.830Z,11.00
2023-02-08T23:44:08.423Z,6.50
2023-02-08T23:46:35.081Z,8.85
2023-02-08T23:49:01.919Z,7.78
2023-02-08T23:51:28.647Z,8.93
2023-02-08T23:53:55.636Z,6.72
2023-02-08T23:56:28.396Z,7.57
2023-02-08T23:58:57.679Z,9.98
